sensor_id;sensor_type;location;lat;lon;timestamp;P1;durP1;ratioP1;P2;durP2;ratioP2
25721;SDS011;13578;53.450;15.496;2024-02-26T00:02:33;3.55;;;3.17;;
25721;SDS011;13578;53.450;15.496;2024-02-26T00:05:37;3.15;;;2.95;;
25721;SDS011;13578;53.450;15.496;2024-02-26T00:08:39;5.28;;;3.50;;
25721;SDS011;13578;53.450;15.496;2024-02-26T00:11:39;4.10;;;3.70;;
25721;SDS011;13578;53.450;15.496;2024-02-26T00:14:40;5.38;;;3.78;;
25721;SDS011;13578;53.450;15.496;2024-02-26T00:17:41;4.05;;;3.65;;
25721;SDS011;13578;53.450;15.496;2024-02-26T00:20:42;3.15;;;2.95;;
25721;SDS011;13578;53.450;15.496;2024-02-26T00:23:43;3.10;;;2.90;;
25721;SDS011;13578;53.450;15.496;2024-02-26T00:26:43;6.45;;;3.08;;
25721;SDS011;13578;53.450;15.496;2024-02-26T00:29:44;3.30;;;3.10;;
25721;SDS011;13578;53.450;15.496;2024-02-26T00:32:45;3.20;;;3.00;;
25721;SDS011;13578;53.450;15.496;2024-02-26T00:35:45;3.17;;;2.95;;
25721;SDS011;13578;53.450;15.496;2024-02-26T00:38:46;4.20;;;3.80;;
25721;SDS011;13578;53.450;15.496;2024-02-26T00:41:50;3.65;;;3.28;;
25721;SDS011;13578;53.450;15.496;2024-02-26T00:48:48;4.47;;;4.03;;
25721;SDS011;13578;53.450;15.496;2024-02-26T00:51:49;4.40;;;3.97;;
25721;SDS011;13578;53.450;15.496;2024-02-26T00:54:49;6.82;;;3.88;;
25721;SDS011;13578;53.450;15.496;2024-02-26T00:57:50;4.40;;;4.00;;
25721;SDS011;13578;53.450;15.496;2024-02-26T01:00:51;5.28;;;4.57;;
25721;SDS011;13578;53.450;15.496;2024-02-26T01:03:51;6.15;;;4.35;;
25721;SDS011;13578;53.450;15.496;2024-02-26T01:06:52;5.60;;;3.85;;
25721;SDS011;13578;53.450;15.496;2024-02-26T01:09:52;10.35;;;4.50;;
25721;SDS011;13578;53.450;15.496;2024-02-26T01:12:53;4.38;;;4.00;;
25721;SDS011;13578;53.450;15.496;2024-02-26T01:15:54;9.05;;;4.35;;
25721;SDS011;13578;53.450;15.496;2024-02-26T01:18:54;10.07;;;5.15;;
25721;SDS011;13578;53.450;15.496;2024-02-26T01:21:55;5.55;;;4.65;;
25721;SDS011;13578;53.450;15.496;2024-02-26T01:24:55;7.13;;;5.30;;
25721;SDS011;13578;53.450;15.496;2024-02-26T01:27:56;8.88;;;5.55;;
25721;SDS011;13578;53.450;15.496;2024-02-26T01:30:57;9.48;;;5.97;;
25721;SDS011;13578;53.450;15.496;2024-02-26T01:33:58;7.25;;;5.40;;
25721;SDS011;13578;53.450;15.496;2024-02-26T01:36:59;5.95;;;4.63;;
25721;SDS011;13578;53.450;15.496;2024-02-26T01:40:00;6.00;;;4.95;;
25721;SDS011;13578;53.450;15.496;2024-02-26T01:43:04;5.97;;;4.80;;
25721;SDS011;13578;53.450;15.496;2024-02-26T01:46:04;9.48;;;4.50;;
25721;SDS011;13578;53.450;15.496;2024-02-26T01:49:05;5.15;;;4.68;;
25721;SDS011;13578;53.450;15.496;2024-02-26T01:52:09;9.85;;;4.85;;
25721;SDS011;13578;53.450;15.496;2024-02-26T01:55:11;7.60;;;4.95;;
25721;SDS011;13578;53.450;15.496;2024-02-26T01:58:11;6.05;;;4.85;;
25721;SDS011;13578;53.450;15.496;2024-02-26T02:01:13;5.30;;;4.18;;
25721;SDS011;13578;53.450;15.496;2024-02-26T02:04:16;7.47;;;4.50;;
25721;SDS011;13578;53.450;15.496;2024-02-26T02:07:17;5.00;;;4.50;;
25721;SDS011;13578;53.450;15.496;2024-02-26T02:10:19;6.82;;;4.78;;
25721;SDS011;13578;53.450;15.496;2024-02-26T02:13:23;26.13;;;5.40;;
25721;SDS011;13578;53.450;15.496;2024-02-26T02:16:23;4.63;;;4.22;;
25721;SDS011;13578;53.450;15.496;2024-02-26T02:19:24;4.75;;;4.35;;
25721;SDS011;13578;53.450;15.496;2024-02-26T02:22:25;5.25;;;4.22;;
25721;SDS011;13578;53.450;15.496;2024-02-26T02:25:26;5.22;;;4.65;;
25721;SDS011;13578;53.450;15.496;2024-02-26T02:28:27;4.65;;;4.25;;
25721;SDS011;13578;53.450;15.496;2024-02-26T02:31:28;8.73;;;4.45;;
25721;SDS011;13578;53.450;15.496;2024-02-26T02:34:29;9.18;;;4.78;;
25721;SDS011;13578;53.450;15.496;2024-02-26T02:37:30;5.30;;;4.47;;
25721;SDS011;13578;53.450;15.496;2024-02-26T02:40:31;5.20;;;4.78;;
25721;SDS011;13578;53.450;15.496;2024-02-26T02:43:31;5.60;;;5.10;;
25721;SDS011;13578;53.450;15.496;2024-02-26T02:46:32;4.70;;;4.25;;
25721;SDS011;13578;53.450;15.496;2024-02-26T02:49:33;5.38;;;4.88;;
25721;SDS011;13578;53.450;15.496;2024-02-26T02:52:34;6.90;;;5.05;;
25721;SDS011;13578;53.450;15.496;2024-02-26T02:55:35;4.35;;;4.05;;
25721;SDS011;13578;53.450;15.496;2024-02-26T02:58:35;8.00;;;4.18;;
25721;SDS011;13578;53.450;15.496;2024-02-26T03:01:36;5.95;;;4.75;;
25721;SDS011;13578;53.450;15.496;2024-02-26T03:04:37;5.72;;;4.70;;
25721;SDS011;13578;53.450;15.496;2024-02-26T03:07:38;4.28;;;3.88;;
25721;SDS011;13578;53.450;15.496;2024-02-26T03:10:38;5.40;;;4.90;;
25721;SDS011;13578;53.450;15.496;2024-02-26T03:13:39;5.95;;;5.38;;
25721;SDS011;13578;53.450;15.496;2024-02-26T03:16:40;4.75;;;4.45;;
25721;SDS011;13578;53.450;15.496;2024-02-26T03:19:40;4.88;;;4.43;;
25721;SDS011;13578;53.450;15.496;2024-02-26T03:22:41;4.60;;;4.28;;
25721;SDS011;13578;53.450;15.496;2024-02-26T03:25:42;6.32;;;4.10;;
25721;SDS011;13578;53.450;15.496;2024-02-26T03:28:46;5.95;;;4.70;;
25721;SDS011;13578;53.450;15.496;2024-02-26T03:31:46;5.30;;;4.43;;
25721;SDS011;13578;53.450;15.496;2024-02-26T03:34:47;4.53;;;4.22;;
25721;SDS011;13578;53.450;15.496;2024-02-26T03:37:48;5.28;;;4.30;;
25721;SDS011;13578;53.450;15.496;2024-02-26T03:40:50;6.13;;;4.40;;
25721;SDS011;13578;53.450;15.496;2024-02-26T03:43:51;4.45;;;4.13;;
25721;SDS011;13578;53.450;15.496;2024-02-26T03:46:51;5.10;;;4.70;;
25721;SDS011;13578;53.450;15.496;2024-02-26T03:49:52;4.40;;;4.00;;
25721;SDS011;13578;53.450;15.496;2024-02-26T03:52:53;5.60;;;5.10;;
25721;SDS011;13578;53.450;15.496;2024-02-26T03:55:54;6.70;;;5.13;;
25721;SDS011;13578;53.450;15.496;2024-02-26T03:58:55;5.22;;;4.72;;
25721;SDS011;13578;53.450;15.496;2024-02-26T04:01:56;5.65;;;5.10;;
25721;SDS011;13578;53.450;15.496;2024-02-26T04:04:56;5.30;;;4.80;;
25721;SDS011;13578;53.450;15.496;2024-02-26T04:07:57;4.82;;;4.43;;
25721;SDS011;13578;53.450;15.496;2024-02-26T04:10:58;4.63;;;4.25;;
25721;SDS011;13578;53.450;15.496;2024-02-26T04:13:59;4.75;;;4.32;;
25721;SDS011;13578;53.450;15.496;2024-02-26T04:16:59;5.75;;;5.15;;
25721;SDS011;13578;53.450;15.496;2024-02-26T04:20:00;5.60;;;5.20;;
25721;SDS011;13578;53.450;15.496;2024-02-26T04:23:02;5.15;;;4.57;;
25721;SDS011;13578;53.450;15.496;2024-02-26T04:26:04;4.78;;;4.38;;
25721;SDS011;13578;53.450;15.496;2024-02-26T04:29:05;5.55;;;5.15;;
25721;SDS011;13578;53.450;15.496;2024-02-26T04:32:05;6.05;;;5.53;;
25721;SDS011;13578;53.450;15.496;2024-02-26T04:35:06;5.50;;;5.00;;
25721;SDS011;13578;53.450;15.496;2024-02-26T04:38:07;8.77;;;5.60;;
25721;SDS011;13578;53.450;15.496;2024-02-26T04:41:08;5.90;;;5.40;;
25721;SDS011;13578;53.450;15.496;2024-02-26T04:44:08;6.75;;;5.60;;
25721;SDS011;13578;53.450;15.496;2024-02-26T04:47:10;17.83;;;5.68;;
25721;SDS011;13578;53.450;15.496;2024-02-26T04:50:10;5.53;;;5.10;;
25721;SDS011;13578;53.450;15.496;2024-02-26T04:53:11;5.15;;;4.75;;
25721;SDS011;13578;53.450;15.496;2024-02-26T04:56:12;7.25;;;5.55;;
25721;SDS011;13578;53.450;15.496;2024-02-26T04:59:13;6.07;;;5.30;;
25721;SDS011;13578;53.450;15.496;2024-02-26T05:02:13;6.18;;;5.55;;
25721;SDS011;13578;53.450;15.496;2024-02-26T05:05:14;7.53;;;5.57;;
25721;SDS011;13578;53.450;15.496;2024-02-26T05:08:15;6.55;;;5.90;;
25721;SDS011;13578;53.450;15.496;2024-02-26T05:11:15;6.80;;;6.10;;
25721;SDS011;13578;53.450;15.496;2024-02-26T05:14:18;7.60;;;6.15;;
25721;SDS011;13578;53.450;15.496;2024-02-26T05:17:19;7.05;;;5.75;;
25721;SDS011;13578;53.450;15.496;2024-02-26T05:20:19;6.00;;;5.35;;
25721;SDS011;13578;53.450;15.496;2024-02-26T05:23:20;6.97;;;6.38;;
25721;SDS011;13578;53.450;15.496;2024-02-26T05:26:21;7.43;;;6.70;;
25721;SDS011;13578;53.450;15.496;2024-02-26T05:29:22;9.15;;;7.68;;
25721;SDS011;13578;53.450;15.496;2024-02-26T05:32:23;8.98;;;7.22;;
25721;SDS011;13578;53.450;15.496;2024-02-26T05:35:24;8.77;;;7.30;;
25721;SDS011;13578;53.450;15.496;2024-02-26T05:38:26;11.85;;;8.00;;
25721;SDS011;13578;53.450;15.496;2024-02-26T05:41:26;12.57;;;8.57;;
25721;SDS011;13578;53.450;15.496;2024-02-26T05:44:27;13.80;;;8.35;;
25721;SDS011;13578;53.450;15.496;2024-02-26T05:47:28;13.70;;;8.50;;
25721;SDS011;13578;53.450;15.496;2024-02-26T05:50:28;12.43;;;9.73;;
25721;SDS011;13578;53.450;15.496;2024-02-26T05:53:29;13.55;;;10.40;;
25721;SDS011;13578;53.450;15.496;2024-02-26T05:56:30;14.07;;;10.32;;
25721;SDS011;13578;53.450;15.496;2024-02-26T05:59:30;14.75;;;11.43;;
25721;SDS011;13578;53.450;15.496;2024-02-26T06:05:50;13.75;;;10.27;;
25721;SDS011;13578;53.450;15.496;2024-02-26T06:08:51;16.58;;;11.52;;
25721;SDS011;13578;53.450;15.496;2024-02-26T06:11:51;16.63;;;11.15;;
25721;SDS011;13578;53.450;15.496;2024-02-26T06:14:52;15.15;;;10.63;;
25721;SDS011;13578;53.450;15.496;2024-02-26T06:17:53;13.88;;;11.13;;
25721;SDS011;13578;53.450;15.496;2024-02-26T06:20:53;18.65;;;12.10;;
25721;SDS011;13578;53.450;15.496;2024-02-26T06:23:57;20.42;;;11.50;;
25721;SDS011;13578;53.450;15.496;2024-02-26T06:30:56;16.60;;;12.15;;
25721;SDS011;13578;53.450;15.496;2024-02-26T06:33:56;18.67;;;11.48;;
25721;SDS011;13578;53.450;15.496;2024-02-26T06:36:57;18.73;;;11.63;;
25721;SDS011;13578;53.450;15.496;2024-02-26T06:39:58;16.33;;;12.15;;
25721;SDS011;13578;53.450;15.496;2024-02-26T06:42:58;20.52;;;12.10;;
25721;SDS011;13578;53.450;15.496;2024-02-26T06:45:59;20.25;;;12.82;;
25721;SDS011;13578;53.450;15.496;2024-02-26T06:49:00;20.20;;;13.00;;
25721;SDS011;13578;53.450;15.496;2024-02-26T06:52:01;23.13;;;13.75;;
25721;SDS011;13578;53.450;15.496;2024-02-26T06:55:01;24.58;;;13.52;;
25721;SDS011;13578;53.450;15.496;2024-02-26T06:58:02;24.67;;;13.55;;
25721;SDS011;13578;53.450;15.496;2024-02-26T07:01:03;20.90;;;13.43;;
25721;SDS011;13578;53.450;15.496;2024-02-26T07:04:03;19.40;;;13.27;;
25721;SDS011;13578;53.450;15.496;2024-02-26T07:07:04;22.35;;;13.35;;
25721;SDS011;13578;53.450;15.496;2024-02-26T07:13:34;25.70;;;13.48;;
25721;SDS011;13578;53.450;15.496;2024-02-26T07:20:46;27.17;;;15.55;;
25721;SDS011;13578;53.450;15.496;2024-02-26T07:23:50;22.00;;;15.13;;
25721;SDS011;13578;53.450;15.496;2024-02-26T07:26:51;25.60;;;16.10;;
25721;SDS011;13578;53.450;15.496;2024-02-26T07:29:51;27.75;;;16.23;;
25721;SDS011;13578;53.450;15.496;2024-02-26T07:32:52;21.30;;;15.20;;
25721;SDS011;13578;53.450;15.496;2024-02-26T07:35:53;24.85;;;15.65;;
25721;SDS011;13578;53.450;15.496;2024-02-26T07:38:54;29.67;;;16.90;;
25721;SDS011;13578;53.450;15.496;2024-02-26T07:41:54;29.17;;;17.73;;
25721;SDS011;13578;53.450;15.496;2024-02-26T07:44:55;28.98;;;17.45;;
25721;SDS011;13578;53.450;15.496;2024-02-26T07:47:59;29.75;;;18.83;;
25721;SDS011;13578;53.450;15.496;2024-02-26T07:55:11;29.17;;;17.80;;
25721;SDS011;13578;53.450;15.496;2024-02-26T08:01:37;40.38;;;20.55;;
25721;SDS011;13578;53.450;15.496;2024-02-26T08:04:54;34.65;;;20.88;;
25721;SDS011;13578;53.450;15.496;2024-02-26T08:11:51;39.28;;;21.55;;
25721;SDS011;13578;53.450;15.496;2024-02-26T08:14:52;40.80;;;22.95;;
25721;SDS011;13578;53.450;15.496;2024-02-26T08:17:52;47.40;;;24.30;;
25721;SDS011;13578;53.450;15.496;2024-02-26T08:20:54;37.45;;;23.92;;
25721;SDS011;13578;53.450;15.496;2024-02-26T08:23:55;48.08;;;26.67;;
25721;SDS011;13578;53.450;15.496;2024-02-26T08:26:56;49.17;;;26.45;;
25721;SDS011;13578;53.450;15.496;2024-02-26T08:29:59;47.70;;;26.73;;
25721;SDS011;13578;53.450;15.496;2024-02-26T08:36:56;53.88;;;26.00;;
25721;SDS011;13578;53.450;15.496;2024-02-26T08:40:03;44.78;;;25.73;;
25721;SDS011;13578;53.450;15.496;2024-02-26T08:43:04;50.17;;;25.40;;
25721;SDS011;13578;53.450;15.496;2024-02-26T08:46:08;47.50;;;28.17;;
25721;SDS011;13578;53.450;15.496;2024-02-26T08:53:27;44.47;;;26.63;;
25721;SDS011;13578;53.450;15.496;2024-02-26T09:04:08;43.03;;;25.13;;
25721;SDS011;13578;53.450;15.496;2024-02-26T09:07:08;44.10;;;24.13;;
25721;SDS011;13578;53.450;15.496;2024-02-26T09:10:09;42.00;;;24.23;;
25721;SDS011;13578;53.450;15.496;2024-02-26T09:13:22;41.45;;;24.48;;
25721;SDS011;13578;53.450;15.496;2024-02-26T09:16:24;47.80;;;24.20;;
25721;SDS011;13578;53.450;15.496;2024-02-26T09:19:25;44.15;;;24.90;;
25721;SDS011;13578;53.450;15.496;2024-02-26T09:22:27;42.05;;;23.55;;
25721;SDS011;13578;53.450;15.496;2024-02-26T09:25:28;40.38;;;22.55;;
25721;SDS011;13578;53.450;15.496;2024-02-26T09:28:29;40.30;;;22.75;;
25721;SDS011;13578;53.450;15.496;2024-02-26T09:31:31;38.30;;;22.05;;
25721;SDS011;13578;53.450;15.496;2024-02-26T09:34:34;35.80;;;19.73;;
25721;SDS011;13578;53.450;15.496;2024-02-26T09:37:35;34.13;;;20.13;;
25721;SDS011;13578;53.450;15.496;2024-02-26T09:40:37;39.63;;;20.17;;
25721;SDS011;13578;53.450;15.496;2024-02-26T09:43:37;29.92;;;18.08;;
25721;SDS011;13578;53.450;15.496;2024-02-26T09:46:42;30.23;;;18.10;;
25721;SDS011;13578;53.450;15.496;2024-02-26T09:49:43;30.88;;;19.20;;
25721;SDS011;13578;53.450;15.496;2024-02-26T09:52:58;28.13;;;16.52;;
25721;SDS011;13578;53.450;15.496;2024-02-26T09:59:46;25.70;;;16.02;;
25721;SDS011;13578;53.450;15.496;2024-02-26T10:02:50;28.17;;;15.82;;
25721;SDS011;13578;53.450;15.496;2024-02-26T10:05:57;27.25;;;15.15;;
25721;SDS011;13578;53.450;15.496;2024-02-26T10:08:59;27.58;;;15.30;;
25721;SDS011;13578;53.450;15.496;2024-02-26T10:12:00;27.55;;;14.57;;
25721;SDS011;13578;53.450;15.496;2024-02-26T10:19:10;24.27;;;12.90;;
25721;SDS011;13578;53.450;15.496;2024-02-26T10:22:31;20.13;;;11.82;;
25721;SDS011;13578;53.450;15.496;2024-02-26T10:25:32;21.42;;;11.45;;
25721;SDS011;13578;53.450;15.496;2024-02-26T10:28:33;18.35;;;10.45;;
25721;SDS011;13578;53.450;15.496;2024-02-26T10:31:33;23.27;;;12.35;;
25721;SDS011;13578;53.450;15.496;2024-02-26T10:34:37;20.48;;;11.18;;
25721;SDS011;13578;53.450;15.496;2024-02-26T10:37:41;15.25;;;9.60;;
25721;SDS011;13578;53.450;15.496;2024-02-26T10:40:42;21.98;;;11.27;;
25721;SDS011;13578;53.450;15.496;2024-02-26T10:43:43;16.42;;;9.63;;
25721;SDS011;13578;53.450;15.496;2024-02-26T10:46:44;14.23;;;8.70;;
25721;SDS011;13578;53.450;15.496;2024-02-26T10:49:48;16.67;;;8.27;;
25721;SDS011;13578;53.450;15.496;2024-02-26T10:52:49;17.70;;;8.55;;
25721;SDS011;13578;53.450;15.496;2024-02-26T10:55:55;16.65;;;8.43;;
25721;SDS011;13578;53.450;15.496;2024-02-26T10:58:59;13.25;;;7.57;;
25721;SDS011;13578;53.450;15.496;2024-02-26T11:02:00;22.05;;;8.02;;
25721;SDS011;13578;53.450;15.496;2024-02-26T11:05:04;15.43;;;6.88;;
25721;SDS011;13578;53.450;15.496;2024-02-26T11:08:06;9.82;;;6.00;;
25721;SDS011;13578;53.450;15.496;2024-02-26T11:11:07;10.70;;;6.18;;
25721;SDS011;13578;53.450;15.496;2024-02-26T11:14:09;13.13;;;6.70;;
25721;SDS011;13578;53.450;15.496;2024-02-26T11:17:13;11.90;;;6.28;;
25721;SDS011;13578;53.450;15.496;2024-02-26T11:20:17;11.60;;;6.32;;
25721;SDS011;13578;53.450;15.496;2024-02-26T11:23:19;9.65;;;6.20;;
25721;SDS011;13578;53.450;15.496;2024-02-26T11:26:20;15.15;;;7.38;;
25721;SDS011;13578;53.450;15.496;2024-02-26T11:29:24;11.70;;;6.50;;
25721;SDS011;13578;53.450;15.496;2024-02-26T11:32:28;17.90;;;7.10;;
25721;SDS011;13578;53.450;15.496;2024-02-26T11:35:30;20.33;;;8.70;;
25721;SDS011;13578;53.450;15.496;2024-02-26T11:38:31;10.43;;;4.72;;
25721;SDS011;13578;53.450;15.496;2024-02-26T11:41:33;7.68;;;4.00;;
25721;SDS011;13578;53.450;15.496;2024-02-26T11:44:34;8.35;;;4.22;;
25721;SDS011;13578;53.450;15.496;2024-02-26T11:47:38;14.40;;;5.57;;
25721;SDS011;13578;53.450;15.496;2024-02-26T11:50:40;10.52;;;4.63;;
25721;SDS011;13578;53.450;15.496;2024-02-26T11:53:45;12.02;;;4.32;;
25721;SDS011;13578;53.450;15.496;2024-02-26T11:56:50;12.63;;;4.80;;
25721;SDS011;13578;53.450;15.496;2024-02-26T11:59:50;11.93;;;5.43;;
25721;SDS011;13578;53.450;15.496;2024-02-26T12:02:55;11.88;;;5.60;;
25721;SDS011;13578;53.450;15.496;2024-02-26T12:06:01;12.65;;;5.55;;
25721;SDS011;13578;53.450;15.496;2024-02-26T12:09:01;11.18;;;5.90;;
25721;SDS011;13578;53.450;15.496;2024-02-26T12:12:03;11.55;;;6.07;;
25721;SDS011;13578;53.450;15.496;2024-02-26T12:15:05;11.10;;;6.07;;
25721;SDS011;13578;53.450;15.496;2024-02-26T12:18:09;10.70;;;5.30;;
25721;SDS011;13578;53.450;15.496;2024-02-26T12:21:11;9.27;;;4.25;;
25721;SDS011;13578;53.450;15.496;2024-02-26T12:24:13;9.07;;;5.18;;
25721;SDS011;13578;53.450;15.496;2024-02-26T12:27:19;8.27;;;4.57;;
25721;SDS011;13578;53.450;15.496;2024-02-26T12:30:19;10.80;;;3.88;;
25721;SDS011;13578;53.450;15.496;2024-02-26T12:33:20;12.32;;;5.05;;
25721;SDS011;13578;53.450;15.496;2024-02-26T12:36:21;9.23;;;4.53;;
25721;SDS011;13578;53.450;15.496;2024-02-26T12:39:23;9.82;;;4.80;;
25721;SDS011;13578;53.450;15.496;2024-02-26T12:42:24;6.43;;;4.13;;
25721;SDS011;13578;53.450;15.496;2024-02-26T12:45:25;9.82;;;5.10;;
25721;SDS011;13578;53.450;15.496;2024-02-26T12:48:26;12.73;;;6.15;;
25721;SDS011;13578;53.450;15.496;2024-02-26T12:51:27;7.95;;;5.22;;
25721;SDS011;13578;53.450;15.496;2024-02-26T12:54:31;16.60;;;6.07;;
25721;SDS011;13578;53.450;15.496;2024-02-26T12:57:35;7.57;;;5.50;;
25721;SDS011;13578;53.450;15.496;2024-02-26T13:00:38;13.40;;;5.57;;
25721;SDS011;13578;53.450;15.496;2024-02-26T13:03:39;11.23;;;5.78;;
25721;SDS011;13578;53.450;15.496;2024-02-26T13:06:40;11.73;;;5.15;;
25721;SDS011;13578;53.450;15.496;2024-02-26T13:09:41;8.60;;;4.45;;
25721;SDS011;13578;53.450;15.496;2024-02-26T13:12:45;8.20;;;4.95;;
25721;SDS011;13578;53.450;15.496;2024-02-26T13:15:47;11.88;;;4.20;;
25721;SDS011;13578;53.450;15.496;2024-02-26T13:18:48;9.57;;;4.72;;
25721;SDS011;13578;53.450;15.496;2024-02-26T13:21:48;6.93;;;3.75;;
25721;SDS011;13578;53.450;15.496;2024-02-26T13:24:55;9.00;;;3.53;;
25721;SDS011;13578;53.450;15.496;2024-02-26T13:28:06;5.72;;;2.10;;
25721;SDS011;13578;53.450;15.496;2024-02-26T13:31:17;2.83;;;2.10;;
25721;SDS011;13578;53.450;15.496;2024-02-26T13:34:25;5.28;;;2.30;;
25721;SDS011;13578;53.450;15.496;2024-02-26T13:37:26;2.95;;;2.50;;
25721;SDS011;13578;53.450;15.496;2024-02-26T13:40:27;5.00;;;3.00;;
25721;SDS011;13578;53.450;15.496;2024-02-26T13:43:29;5.40;;;2.50;;
25721;SDS011;13578;53.450;15.496;2024-02-26T13:46:29;4.82;;;2.00;;
25721;SDS011;13578;53.450;15.496;2024-02-26T13:49:30;5.22;;;2.15;;
25721;SDS011;13578;53.450;15.496;2024-02-26T13:52:30;5.00;;;2.67;;
25721;SDS011;13578;53.450;15.496;2024-02-26T13:55:33;6.82;;;3.25;;
25721;SDS011;13578;53.450;15.496;2024-02-26T13:58:33;6.15;;;3.70;;
25721;SDS011;13578;53.450;15.496;2024-02-26T14:01:34;6.90;;;4.15;;
25721;SDS011;13578;53.450;15.496;2024-02-26T14:04:35;8.80;;;4.47;;
25721;SDS011;13578;53.450;15.496;2024-02-26T14:07:37;10.57;;;5.35;;
25721;SDS011;13578;53.450;15.496;2024-02-26T14:10:37;18.13;;;8.30;;
25721;SDS011;13578;53.450;15.496;2024-02-26T14:13:38;16.15;;;7.97;;
25721;SDS011;13578;53.450;15.496;2024-02-26T14:16:38;14.88;;;6.13;;
25721;SDS011;13578;53.450;15.496;2024-02-26T14:19:39;10.88;;;6.60;;
25721;SDS011;13578;53.450;15.496;2024-02-26T14:22:43;17.42;;;6.82;;
25721;SDS011;13578;53.450;15.496;2024-02-26T14:25:44;12.20;;;6.38;;
25721;SDS011;13578;53.450;15.496;2024-02-26T14:28:45;10.95;;;5.50;;
25721;SDS011;13578;53.450;15.496;2024-02-26T14:31:46;16.25;;;7.25;;
25721;SDS011;13578;53.450;15.496;2024-02-26T14:34:48;18.58;;;6.82;;
25721;SDS011;13578;53.450;15.496;2024-02-26T14:37:49;11.77;;;6.25;;
25721;SDS011;13578;53.450;15.496;2024-02-26T14:40:50;12.60;;;6.60;;
25721;SDS011;13578;53.450;15.496;2024-02-26T14:43:51;16.75;;;7.22;;
25721;SDS011;13578;53.450;15.496;2024-02-26T14:46:51;11.27;;;6.28;;
25721;SDS011;13578;53.450;15.496;2024-02-26T14:49:52;16.25;;;6.07;;
25721;SDS011;13578;53.450;15.496;2024-02-26T14:52:53;17.85;;;6.72;;
25721;SDS011;13578;53.450;15.496;2024-02-26T14:55:53;13.63;;;6.80;;
25721;SDS011;13578;53.450;15.496;2024-02-26T14:58:54;10.50;;;7.18;;
25721;SDS011;13578;53.450;15.496;2024-02-26T15:01:54;15.57;;;7.22;;
25721;SDS011;13578;53.450;15.496;2024-02-26T15:04:55;11.38;;;6.40;;
25721;SDS011;13578;53.450;15.496;2024-02-26T15:07:55;10.68;;;6.00;;
25721;SDS011;13578;53.450;15.496;2024-02-26T15:10:56;11.43;;;6.38;;
25721;SDS011;13578;53.450;15.496;2024-02-26T15:13:57;11.32;;;6.25;;
25721;SDS011;13578;53.450;15.496;2024-02-26T15:16:57;15.05;;;7.35;;
25721;SDS011;13578;53.450;15.496;2024-02-26T15:19:58;13.23;;;6.10;;
25721;SDS011;13578;53.450;15.496;2024-02-26T15:22:59;9.98;;;6.28;;
25721;SDS011;13578;53.450;15.496;2024-02-26T15:26:00;12.35;;;5.85;;
25721;SDS011;13578;53.450;15.496;2024-02-26T15:29:00;8.50;;;5.43;;
25721;SDS011;13578;53.450;15.496;2024-02-26T15:32:01;10.48;;;6.28;;
25721;SDS011;13578;53.450;15.496;2024-02-26T15:35:01;10.32;;;6.25;;
25721;SDS011;13578;53.450;15.496;2024-02-26T15:38:02;16.75;;;7.45;;
25721;SDS011;13578;53.450;15.496;2024-02-26T15:41:10;14.13;;;7.72;;
25721;SDS011;13578;53.450;15.496;2024-02-26T15:44:12;18.00;;;8.18;;
25721;SDS011;13578;53.450;15.496;2024-02-26T15:47:13;16.25;;;9.27;;
25721;SDS011;13578;53.450;15.496;2024-02-26T15:50:13;15.70;;;8.98;;
25721;SDS011;13578;53.450;15.496;2024-02-26T15:53:14;15.70;;;8.88;;
25721;SDS011;13578;53.450;15.496;2024-02-26T15:56:15;17.75;;;9.55;;
25721;SDS011;13578;53.450;15.496;2024-02-26T15:59:16;20.33;;;10.60;;
25721;SDS011;13578;53.450;15.496;2024-02-26T16:02:17;17.88;;;9.50;;
25721;SDS011;13578;53.450;15.496;2024-02-26T16:05:18;17.05;;;10.10;;
25721;SDS011;13578;53.450;15.496;2024-02-26T16:08:20;20.63;;;9.38;;
25721;SDS011;13578;53.450;15.496;2024-02-26T16:15:18;23.58;;;10.85;;
25721;SDS011;13578;53.450;15.496;2024-02-26T16:18:22;16.88;;;10.65;;
25721;SDS011;13578;53.450;15.496;2024-02-26T16:21:23;19.15;;;10.45;;
25721;SDS011;13578;53.450;15.496;2024-02-26T16:24:23;17.15;;;11.00;;
25721;SDS011;13578;53.450;15.496;2024-02-26T16:27:24;15.25;;;10.05;;
25721;SDS011;13578;53.450;15.496;2024-02-26T16:30:25;18.90;;;10.50;;
25721;SDS011;13578;53.450;15.496;2024-02-26T16:33:25;16.17;;;10.52;;
25721;SDS011;13578;53.450;15.496;2024-02-26T16:36:26;22.50;;;11.77;;
25721;SDS011;13578;53.450;15.496;2024-02-26T16:39:27;18.90;;;10.68;;
25721;SDS011;13578;53.450;15.496;2024-02-26T16:42:27;17.88;;;10.85;;
25721;SDS011;13578;53.450;15.496;2024-02-26T16:45:28;24.27;;;11.55;;
25721;SDS011;13578;53.450;15.496;2024-02-26T16:48:31;23.60;;;12.07;;
25721;SDS011;13578;53.450;15.496;2024-02-26T16:51:38;22.48;;;11.77;;
25721;SDS011;13578;53.450;15.496;2024-02-26T16:54:39;21.00;;;11.75;;
25721;SDS011;13578;53.450;15.496;2024-02-26T16:57:39;25.15;;;11.93;;
25721;SDS011;13578;53.450;15.496;2024-02-26T17:00:40;24.27;;;13.23;;
25721;SDS011;13578;53.450;15.496;2024-02-26T17:03:41;26.65;;;12.15;;
25721;SDS011;13578;53.450;15.496;2024-02-26T17:06:41;26.40;;;13.88;;
25721;SDS011;13578;53.450;15.496;2024-02-26T17:09:42;19.58;;;11.48;;
25721;SDS011;13578;53.450;15.496;2024-02-26T17:12:43;25.02;;;12.73;;
25721;SDS011;13578;53.450;15.496;2024-02-26T17:15:45;19.85;;;11.68;;
25721;SDS011;13578;53.450;15.496;2024-02-26T17:18:46;23.70;;;11.45;;
25721;SDS011;13578;53.450;15.496;2024-02-26T17:21:46;18.17;;;11.85;;
25721;SDS011;13578;53.450;15.496;2024-02-26T17:25:02;29.23;;;11.40;;
25721;SDS011;13578;53.450;15.496;2024-02-26T17:32:00;18.88;;;10.93;;
25721;SDS011;13578;53.450;15.496;2024-02-26T17:35:01;14.20;;;10.13;;
25721;SDS011;13578;53.450;15.496;2024-02-26T17:38:04;16.83;;;9.32;;
25721;SDS011;13578;53.450;15.496;2024-02-26T17:45:01;15.80;;;9.65;;
25721;SDS011;13578;53.450;15.496;2024-02-26T17:48:02;17.10;;;10.18;;
25721;SDS011;13578;53.450;15.496;2024-02-26T17:51:03;15.07;;;9.95;;
25721;SDS011;13578;53.450;15.496;2024-02-26T17:54:06;12.73;;;8.50;;
25721;SDS011;13578;53.450;15.496;2024-02-26T17:57:06;12.25;;;8.60;;
25721;SDS011;13578;53.450;15.496;2024-02-26T18:00:07;15.38;;;9.75;;
25721;SDS011;13578;53.450;15.496;2024-02-26T18:03:08;17.77;;;10.10;;
25721;SDS011;13578;53.450;15.496;2024-02-26T18:06:09;12.43;;;8.48;;
25721;SDS011;13578;53.450;15.496;2024-02-26T18:09:09;15.40;;;9.50;;
25721;SDS011;13578;53.450;15.496;2024-02-26T18:12:10;18.27;;;9.93;;
25721;SDS011;13578;53.450;15.496;2024-02-26T18:15:10;17.73;;;10.30;;
25721;SDS011;13578;53.450;15.496;2024-02-26T18:18:11;15.90;;;10.00;;
25721;SDS011;13578;53.450;15.496;2024-02-26T18:21:12;16.35;;;10.45;;
25721;SDS011;13578;53.450;15.496;2024-02-26T18:24:16;18.67;;;9.98;;
25721;SDS011;13578;53.450;15.496;2024-02-26T18:27:19;15.88;;;10.85;;
25721;SDS011;13578;53.450;15.496;2024-02-26T18:34:53;16.83;;;10.45;;
25721;SDS011;13578;53.450;15.496;2024-02-26T18:42:04;19.50;;;11.18;;
25721;SDS011;13578;53.450;15.496;2024-02-26T18:45:07;18.95;;;10.52;;
25721;SDS011;13578;53.450;15.496;2024-02-26T18:48:28;19.00;;;9.77;;
25721;SDS011;13578;53.450;15.496;2024-02-26T18:51:28;25.08;;;11.20;;
25721;SDS011;13578;53.450;15.496;2024-02-26T18:54:35;20.33;;;11.43;;
25721;SDS011;13578;53.450;15.496;2024-02-26T19:01:36;19.98;;;10.95;;
25721;SDS011;13578;53.450;15.496;2024-02-26T19:04:43;21.80;;;12.15;;